sensor_id;sensor_type;location;lat;lon;timestamp;temperature;humidity
5588;DHT22;2816;49.778;9.986;2022-09-09T00:01:42;17.00;99.90
5588;DHT22;2816;49.778;9.986;2022-09-09T00:04:13;17.00;99.90
5588;DHT22;2816;49.778;9.986;2022-09-09T00:06:46;16.90;99.90
5588;DHT22;2816;49.778;9.986;2022-09-09T00:09:18;16.90;99.90
5588;DHT22;2816;49.778;9.986;2022-09-09T00:11:49;17.00;99.90
5588;DHT22;2816;49.778;9.986;2022-09-09T00:14:23;17.00;99.90
5588;DHT22;2816;49.778;9.986;2022-09-09T00:16:56;17.00;99.90
5588;DHT22;2816;49.778;9.986;2022-09-09T00:19:31;17.10;99.90
5588;DHT22;2816;49.778;9.986;2022-09-09T00:22:12;17.20;99.90
5588;DHT22;2816;49.778;9.986;2022-09-09T00:24:44;17.10;99.90
5588;DHT22;2816;49.778;9.986;2022-09-09T00:27:17;17.20;99.90
5588;DHT22;2816;49.778;9.986;2022-09-09T00:29:50;17.20;99.90
5588;DHT22;2816;49.778;9.986;2022-09-09T00:32:20;17.30;99.90
5588;DHT22;2816;49.778;9.986;2022-09-09T00:34:49;17.40;99.90
5588;DHT22;2816;49.778;9.986;2022-09-09T00:37:21;17.10;99.90
5588;DHT22;2816;49.778;9.986;2022-09-09T00:39:52;17.20;99.90
5588;DHT22;2816;49.778;9.986;2022-09-09T00:42:24;17.10;99.90
5588;DHT22;2816;49.778;9.986;2022-09-09T00:44:56;17.20;99.90
5588;DHT22;2816;49.778;9.986;2022-09-09T00:47:43;17.10;99.90
5588;DHT22;2816;49.778;9.986;2022-09-09T00:50:33;16.90;99.90
5588;DHT22;2816;49.778;9.986;2022-09-09T00:53:12;16.80;99.90
5588;DHT22;2816;49.778;9.986;2022-09-09T00:55:49;16.90;99.90
5588;DHT22;2816;49.778;9.986;2022-09-09T00:58:19;17.00;99.90
5588;DHT22;2816;49.778;9.986;2022-09-09T01:00:51;17.10;99.90
5588;DHT22;2816;49.778;9.986;2022-09-09T01:03:22;17.10;99.90
5588;DHT22;2816;49.778;9.986;2022-09-09T01:06:00;17.30;99.90
5588;DHT22;2816;49.778;9.986;2022-09-09T01:08:42;17.20;99.90
5588;DHT22;2816;49.778;9.986;2022-09-09T01:11:18;17.20;99.90
5588;DHT22;2816;49.778;9.986;2022-09-09T01:13:49;17.40;99.90
5588;DHT22;2816;49.778;9.986;2022-09-09T01:16:19;17.40;99.90
5588;DHT22;2816;49.778;9.986;2022-09-09T01:18:51;17.40;99.90
5588;DHT22;2816;49.778;9.986;2022-09-09T01:21:25;17.30;99.90
5588;DHT22;2816;49.778;9.986;2022-09-09T01:24:15;17.40;99.90
5588;DHT22;2816;49.778;9.986;2022-09-09T01:26:48;17.30;99.90
5588;DHT22;2816;49.778;9.986;2022-09-09T01:29:18;17.40;99.90
5588;DHT22;2816;49.778;9.986;2022-09-09T01:31:53;17.30;99.90
5588;DHT22;2816;49.778;9.986;2022-09-09T01:34:22;17.40;99.90
5588;DHT22;2816;49.778;9.986;2022-09-09T01:36:53;17.40;99.90
5588;DHT22;2816;49.778;9.986;2022-09-09T01:39:23;17.30;99.90
5588;DHT22;2816;49.778;9.986;2022-09-09T01:41:51;17.30;99.90
5588;DHT22;2816;49.778;9.986;2022-09-09T01:44:19;17.30;99.90
5588;DHT22;2816;49.778;9.986;2022-09-09T01:46:46;17.30;99.90
5588;DHT22;2816;49.778;9.986;2022-09-09T01:49:13;17.30;99.90
5588;DHT22;2816;49.778;9.986;2022-09-09T01:51:41;17.20;99.90
5588;DHT22;2816;49.778;9.986;2022-09-09T01:54:10;17.20;99.90
5588;DHT22;2816;49.778;9.986;2022-09-09T01:56:47;17.10;99.90
5588;DHT22;2816;49.778;9.986;2022-09-09T02:02:38;17.30;99.90
5588;DHT22;2816;49.778;9.986;2022-09-09T02:05:19;17.30;99.90
5588;DHT22;2816;49.778;9.986;2022-09-09T02:07:50;17.30;99.90
5588;DHT22;2816;49.778;9.986;2022-09-09T02:10:21;17.30;99.90
5588;DHT22;2816;49.778;9.986;2022-09-09T02:12:52;17.30;99.90
5588;DHT22;2816;49.778;9.986;2022-09-09T02:15:26;17.30;99.90
5588;DHT22;2816;49.778;9.986;2022-09-09T02:17:57;17.30;99.90
5588;DHT22;2816;49.778;9.986;2022-09-09T02:20:26;17.30;99.90
5588;DHT22;2816;49.778;9.986;2022-09-09T02:22:53;17.20;99.90
5588;DHT22;2816;49.778;9.986;2022-09-09T02:25:24;17.20;99.90
5588;DHT22;2816;49.778;9.986;2022-09-09T02:27:52;17.20;99.90
5588;DHT22;2816;49.778;9.986;2022-09-09T02:30:20;17.30;99.90
5588;DHT22;2816;49.778;9.986;2022-09-09T02:32:49;17.30;99.90
5588;DHT22;2816;49.778;9.986;2022-09-09T02:35:21;17.30;99.90
5588;DHT22;2816;49.778;9.986;2022-09-09T02:37:51;17.30;99.90
5588;DHT22;2816;49.778;9.986;2022-09-09T02:40:19;17.20;99.90
5588;DHT22;2816;49.778;9.986;2022-09-09T02:42:48;17.20;99.90
5588;DHT22;2816;49.778;9.986;2022-09-09T02:45:18;17.20;99.90
5588;DHT22;2816;49.778;9.986;2022-09-09T02:47:50;17.20;99.90
5588;DHT22;2816;49.778;9.986;2022-09-09T02:50:27;17.10;99.90
5588;DHT22;2816;49.778;9.986;2022-09-09T02:53:06;17.10;99.90
5588;DHT22;2816;49.778;9.986;2022-09-09T02:55:39;17.10;99.90
5588;DHT22;2816;49.778;9.986;2022-09-09T02:58:10;17.10;99.90
5588;DHT22;2816;49.778;9.986;2022-09-09T03:00:39;17.00;99.90
5588;DHT22;2816;49.778;9.986;2022-09-09T03:03:07;16.90;99.90
5588;DHT22;2816;49.778;9.986;2022-09-09T03:05:36;16.90;99.90
5588;DHT22;2816;49.778;9.986;2022-09-09T03:08:03;16.90;99.90
5588;DHT22;2816;49.778;9.986;2022-09-09T03:10:31;16.70;99.90
5588;DHT22;2816;49.778;9.986;2022-09-09T03:12:58;16.80;99.90
5588;DHT22;2816;49.778;9.986;2022-09-09T03:15:25;16.70;99.90
5588;DHT22;2816;49.778;9.986;2022-09-09T03:17:54;16.70;99.90
5588;DHT22;2816;49.778;9.986;2022-09-09T03:20:22;16.60;99.90
5588;DHT22;2816;49.778;9.986;2022-09-09T03:22:50;16.40;99.90
5588;DHT22;2816;49.778;9.986;2022-09-09T03:25:17;16.30;99.90
5588;DHT22;2816;49.778;9.986;2022-09-09T03:27:44;16.20;99.90
5588;DHT22;2816;49.778;9.986;2022-09-09T03:30:11;16.20;99.90
5588;DHT22;2816;49.778;9.986;2022-09-09T03:32:39;16.30;99.90
5588;DHT22;2816;49.778;9.986;2022-09-09T03:35:06;16.30;99.90
5588;DHT22;2816;49.778;9.986;2022-09-09T03:37:34;16.20;99.90
5588;DHT22;2816;49.778;9.986;2022-09-09T03:40:03;16.10;99.90
5588;DHT22;2816;49.778;9.986;2022-09-09T03:42:30;16.10;99.90
5588;DHT22;2816;49.778;9.986;2022-09-09T03:44:57;16.00;99.90
5588;DHT22;2816;49.778;9.986;2022-09-09T03:47:25;15.90;99.90
5588;DHT22;2816;49.778;9.986;2022-09-09T03:49:52;15.90;99.90
5588;DHT22;2816;49.778;9.986;2022-09-09T03:52:19;15.80;99.90
5588;DHT22;2816;49.778;9.986;2022-09-09T03:54:47;15.90;99.90
5588;DHT22;2816;49.778;9.986;2022-09-09T03:57:15;15.80;99.90
5588;DHT22;2816;49.778;9.986;2022-09-09T03:59:42;15.80;99.90
5588;DHT22;2816;49.778;9.986;2022-09-09T04:02:09;15.90;99.90
5588;DHT22;2816;49.778;9.986;2022-09-09T04:04:36;16.00;99.90
5588;DHT22;2816;49.778;9.986;2022-09-09T04:07:03;16.00;99.90
5588;DHT22;2816;49.778;9.986;2022-09-09T04:09:32;16.00;99.90
5588;DHT22;2816;49.778;9.986;2022-09-09T04:12:00;16.00;99.90
5588;DHT22;2816;49.778;9.986;2022-09-09T04:14:28;15.90;99.90
5588;DHT22;2816;49.778;9.986;2022-09-09T04:16:55;15.90;99.90
5588;DHT22;2816;49.778;9.986;2022-09-09T04:19:22;15.90;99.90
5588;DHT22;2816;49.778;9.986;2022-09-09T04:21:49;15.90;99.90
5588;DHT22;2816;49.778;9.986;2022-09-09T04:24:16;16.10;99.90
5588;DHT22;2816;49.778;9.986;2022-09-09T04:26:44;16.50;99.90
5588;DHT22;2816;49.778;9.986;2022-09-09T04:29:12;16.60;99.90
5588;DHT22;2816;49.778;9.986;2022-09-09T04:31:40;16.80;99.90
5588;DHT22;2816;49.778;9.986;2022-09-09T04:34:08;16.90;99.90
5588;DHT22;2816;49.778;9.986;2022-09-09T04:36:35;17.00;99.90
5588;DHT22;2816;49.778;9.986;2022-09-09T04:39:02;16.90;99.90
5588;DHT22;2816;49.778;9.986;2022-09-09T04:41:29;16.90;99.90
5588;DHT22;2816;49.778;9.986;2022-09-09T04:43:58;16.70;99.90
5588;DHT22;2816;49.778;9.986;2022-09-09T04:46:26;16.50;99.90
5588;DHT22;2816;49.778;9.986;2022-09-09T04:48:55;16.30;99.90
5588;DHT22;2816;49.778;9.986;2022-09-09T04:51:21;16.30;99.90
5588;DHT22;2816;49.778;9.986;2022-09-09T04:53:48;16.20;99.90
5588;DHT22;2816;49.778;9.986;2022-09-09T04:56:17;16.40;99.90
5588;DHT22;2816;49.778;9.986;2022-09-09T04:58:44;16.50;99.90
5588;DHT22;2816;49.778;9.986;2022-09-09T05:01:13;16.60;99.90
5588;DHT22;2816;49.778;9.986;2022-09-09T05:03:41;16.60;99.90
5588;DHT22;2816;49.778;9.986;2022-09-09T05:06:11;16.40;99.90
5588;DHT22;2816;49.778;9.986;2022-09-09T05:08:39;16.20;99.90
5588;DHT22;2816;49.778;9.986;2022-09-09T05:11:13;16.10;99.90
5588;DHT22;2816;49.778;9.986;2022-09-09T05:13:41;15.90;99.90
5588;DHT22;2816;49.778;9.986;2022-09-09T05:16:08;16.00;99.90
5588;DHT22;2816;49.778;9.986;2022-09-09T05:18:36;16.00;99.90
5588;DHT22;2816;49.778;9.986;2022-09-09T05:21:04;16.10;99.90
5588;DHT22;2816;49.778;9.986;2022-09-09T05:23:33;16.10;99.90
5588;DHT22;2816;49.778;9.986;2022-09-09T05:26:01;16.10;99.90
5588;DHT22;2816;49.778;9.986;2022-09-09T05:28:28;16.30;99.90
5588;DHT22;2816;49.778;9.986;2022-09-09T05:30:57;16.30;99.90
5588;DHT22;2816;49.778;9.986;2022-09-09T05:33:24;16.30;99.90
5588;DHT22;2816;49.778;9.986;2022-09-09T05:36:02;16.50;99.90
5588;DHT22;2816;49.778;9.986;2022-09-09T05:38:30;16.50;99.90
5588;DHT22;2816;49.778;9.986;2022-09-09T05:40:59;16.60;99.90
5588;DHT22;2816;49.778;9.986;2022-09-09T05:43:27;16.70;99.90
5588;DHT22;2816;49.778;9.986;2022-09-09T05:46:01;16.90;99.90
5588;DHT22;2816;49.778;9.986;2022-09-09T05:48:30;16.80;99.90
5588;DHT22;2816;49.778;9.986;2022-09-09T05:50:57;16.80;99.90
5588;DHT22;2816;49.778;9.986;2022-09-09T05:53:25;16.90;99.90
5588;DHT22;2816;49.778;9.986;2022-09-09T05:56:00;16.80;99.90
5588;DHT22;2816;49.778;9.986;2022-09-09T05:58:29;16.90;99.90
5588;DHT22;2816;49.778;9.986;2022-09-09T06:01:01;16.80;99.90
5588;DHT22;2816;49.778;9.986;2022-09-09T06:03:28;16.90;99.90
5588;DHT22;2816;49.778;9.986;2022-09-09T06:05:58;17.00;99.90
5588;DHT22;2816;49.778;9.986;2022-09-09T06:08:26;17.00;99.90
5588;DHT22;2816;49.778;9.986;2022-09-09T06:10:53;17.10;99.90
5588;DHT22;2816;49.778;9.986;2022-09-09T06:13:22;17.10;99.90
5588;DHT22;2816;49.778;9.986;2022-09-09T06:15:50;17.20;99.90
5588;DHT22;2816;49.778;9.986;2022-09-09T06:18:17;17.10;99.90
5588;DHT22;2816;49.778;9.986;2022-09-09T06:20:54;17.10;99.90
5588;DHT22;2816;49.778;9.986;2022-09-09T06:23:21;17.10;99.90
5588;DHT22;2816;49.778;9.986;2022-09-09T06:25:48;17.10;99.90
5588;DHT22;2816;49.778;9.986;2022-09-09T06:28:16;17.20;99.90
5588;DHT22;2816;49.778;9.986;2022-09-09T06:30:46;17.20;99.90
5588;DHT22;2816;49.778;9.986;2022-09-09T06:33:12;17.20;99.90
5588;DHT22;2816;49.778;9.986;2022-09-09T06:35:40;17.00;99.90
5588;DHT22;2816;49.778;9.986;2022-09-09T06:38:07;17.00;99.90
5588;DHT22;2816;49.778;9.986;2022-09-09T06:40:34;17.10;99.90
5588;DHT22;2816;49.778;9.986;2022-09-09T06:43:01;17.00;99.90
5588;DHT22;2816;49.778;9.986;2022-09-09T06:45:28;17.10;99.90
5588;DHT22;2816;49.778;9.986;2022-09-09T06:47:56;17.10;99.90
5588;DHT22;2816;49.778;9.986;2022-09-09T06:50:23;17.10;99.90
5588;DHT22;2816;49.778;9.986;2022-09-09T06:52:50;17.10;99.90
5588;DHT22;2816;49.778;9.986;2022-09-09T06:55:17;17.10;99.90
5588;DHT22;2816;49.778;9.986;2022-09-09T06:57:45;17.20;99.90
5588;DHT22;2816;49.778;9.986;2022-09-09T07:00:12;17.20;99.90
5588;DHT22;2816;49.778;9.986;2022-09-09T07:02:40;17.30;99.90
5588;DHT22;2816;49.778;9.986;2022-09-09T07:05:09;17.30;99.90
5588;DHT22;2816;49.778;9.986;2022-09-09T07:07:36;17.40;99.90
5588;DHT22;2816;49.778;9.986;2022-09-09T07:10:04;17.30;99.90
5588;DHT22;2816;49.778;9.986;2022-09-09T07:12:31;17.30;99.90
5588;DHT22;2816;49.778;9.986;2022-09-09T07:14:58;17.30;99.90
5588;DHT22;2816;49.778;9.986;2022-09-09T07:17:24;17.40;99.90
5588;DHT22;2816;49.778;9.986;2022-09-09T07:19:51;17.50;99.90
5588;DHT22;2816;49.778;9.986;2022-09-09T07:22:20;17.60;99.90
5588;DHT22;2816;49.778;9.986;2022-09-09T07:24:47;17.60;99.90
5588;DHT22;2816;49.778;9.986;2022-09-09T07:27:15;17.60;99.90
5588;DHT22;2816;49.778;9.986;2022-09-09T07:29:42;17.60;99.90
5588;DHT22;2816;49.778;9.986;2022-09-09T07:32:08;17.50;99.90
5588;DHT22;2816;49.778;9.986;2022-09-09T07:34:35;17.60;99.90
5588;DHT22;2816;49.778;9.986;2022-09-09T07:37:02;17.70;99.90
5588;DHT22;2816;49.778;9.986;2022-09-09T07:39:31;17.70;99.90
5588;DHT22;2816;49.778;9.986;2022-09-09T07:41:57;17.80;99.90
5588;DHT22;2816;49.778;9.986;2022-09-09T07:44:24;17.80;99.90
5588;DHT22;2816;49.778;9.986;2022-09-09T07:46:52;17.80;99.90
5588;DHT22;2816;49.778;9.986;2022-09-09T07:49:19;17.80;99.90
5588;DHT22;2816;49.778;9.986;2022-09-09T07:51:47;17.90;99.90
5588;DHT22;2816;49.778;9.986;2022-09-09T07:54:16;18.00;99.90
5588;DHT22;2816;49.778;9.986;2022-09-09T07:56:47;18.10;99.90
5588;DHT22;2816;49.778;9.986;2022-09-09T07:59:15;18.20;99.90
5588;DHT22;2816;49.778;9.986;2022-09-09T08:01:44;18.10;99.90
5588;DHT22;2816;49.778;9.986;2022-09-09T08:04:13;18.20;99.90
5588;DHT22;2816;49.778;9.986;2022-09-09T08:06:44;18.20;99.90
5588;DHT22;2816;49.778;9.986;2022-09-09T08:09:13;18.30;99.90
5588;DHT22;2816;49.778;9.986;2022-09-09T08:11:41;18.40;99.90
5588;DHT22;2816;49.778;9.986;2022-09-09T08:14:10;18.40;99.90
5588;DHT22;2816;49.778;9.986;2022-09-09T08:16:40;18.60;99.90
5588;DHT22;2816;49.778;9.986;2022-09-09T08:19:08;18.60;99.90
5588;DHT22;2816;49.778;9.986;2022-09-09T08:21:36;18.70;99.90
5588;DHT22;2816;49.778;9.986;2022-09-09T08:24:05;18.90;99.90
5588;DHT22;2816;49.778;9.986;2022-09-09T08:26:34;18.90;99.90
5588;DHT22;2816;49.778;9.986;2022-09-09T08:29:03;19.00;99.90
5588;DHT22;2816;49.778;9.986;2022-09-09T08:31:33;19.00;99.90
5588;DHT22;2816;49.778;9.986;2022-09-09T08:34:01;19.00;99.90
5588;DHT22;2816;49.778;9.986;2022-09-09T08:36:31;19.00;99.90
5588;DHT22;2816;49.778;9.986;2022-09-09T08:38:59;18.90;99.90
5588;DHT22;2816;49.778;9.986;2022-09-09T08:41:44;19.00;99.90
5588;DHT22;2816;49.778;9.986;2022-09-09T08:44:17;19.00;99.90
5588;DHT22;2816;49.778;9.986;2022-09-09T08:46:59;19.00;99.90
5588;DHT22;2816;49.778;9.986;2022-09-09T08:49:43;19.00;99.90
5588;DHT22;2816;49.778;9.986;2022-09-09T08:52:16;19.00;99.90
5588;DHT22;2816;49.778;9.986;2022-09-09T08:54:45;19.00;99.90
5588;DHT22;2816;49.778;9.986;2022-09-09T08:57:20;19.20;99.90
5588;DHT22;2816;49.778;9.986;2022-09-09T08:59:52;19.30;99.90
5588;DHT22;2816;49.778;9.986;2022-09-09T09:02:26;19.20;99.90
5588;DHT22;2816;49.778;9.986;2022-09-09T09:05:16;19.30;99.90
5588;DHT22;2816;49.778;9.986;2022-09-09T09:07:54;19.40;99.90
5588;DHT22;2816;49.778;9.986;2022-09-09T09:10:34;19.50;99.90
5588;DHT22;2816;49.778;9.986;2022-09-09T09:13:10;19.40;99.90
5588;DHT22;2816;49.778;9.986;2022-09-09T09:15:38;19.60;99.90
5588;DHT22;2816;49.778;9.986;2022-09-09T09:18:12;19.70;99.90
5588;DHT22;2816;49.778;9.986;2022-09-09T09:20:47;20.00;99.90
5588;DHT22;2816;49.778;9.986;2022-09-09T09:23:21;20.10;99.90
5588;DHT22;2816;49.778;9.986;2022-09-09T09:25:49;20.20;99.90
5588;DHT22;2816;49.778;9.986;2022-09-09T09:28:18;20.20;99.90
5588;DHT22;2816;49.778;9.986;2022-09-09T09:30:49;20.30;99.90
5588;DHT22;2816;49.778;9.986;2022-09-09T09:33:23;20.40;99.90
5588;DHT22;2816;49.778;9.986;2022-09-09T09:35:52;20.50;99.90
5588;DHT22;2816;49.778;9.986;2022-09-09T09:38:21;20.40;99.90
5588;DHT22;2816;49.778;9.986;2022-09-09T09:40:49;20.40;99.90
5588;DHT22;2816;49.778;9.986;2022-09-09T09:43:24;20.40;99.90
5588;DHT22;2816;49.778;9.986;2022-09-09T09:45:51;20.40;99.90
5588;DHT22;2816;49.778;9.986;2022-09-09T09:48:19;20.30;99.90
5588;DHT22;2816;49.778;9.986;2022-09-09T09:50:49;20.30;99.90
5588;DHT22;2816;49.778;9.986;2022-09-09T09:53:22;20.20;99.90
5588;DHT22;2816;49.778;9.986;2022-09-09T09:55:54;20.20;99.90
5588;DHT22;2816;49.778;9.986;2022-09-09T09:58:22;20.10;99.90
5588;DHT22;2816;49.778;9.986;2022-09-09T10:00:50;20.10;99.90
5588;DHT22;2816;49.778;9.986;2022-09-09T10:03:24;20.10;99.90
5588;DHT22;2816;49.778;9.986;2022-09-09T10:05:52;20.20;99.90
5588;DHT22;2816;49.778;9.986;2022-09-09T10:08:19;20.40;99.90
5588;DHT22;2816;49.778;9.986;2022-09-09T10:11:03;20.50;99.90
5588;DHT22;2816;49.778;9.986;2022-09-09T10:13:42;20.70;99.90
5588;DHT22;2816;49.778;9.986;2022-09-09T10:16:25;20.70;99.90
5588;DHT22;2816;49.778;9.986;2022-09-09T10:19:00;21.00;99.90
5588;DHT22;2816;49.778;9.986;2022-09-09T10:21:50;21.10;99.90
5588;DHT22;2816;49.778;9.986;2022-09-09T10:24:39;21.30;99.90
5588;DHT22;2816;49.778;9.986;2022-09-09T10:27:15;21.60;99.90
5588;DHT22;2816;49.778;9.986;2022-09-09T10:29:57;21.90;99.90
5588;DHT22;2816;49.778;9.986;2022-09-09T10:32:37;21.90;99.90
5588;DHT22;2816;49.778;9.986;2022-09-09T10:35:11;22.00;99.90
5588;DHT22;2816;49.778;9.986;2022-09-09T10:37:51;22.20;99.90
5588;DHT22;2816;49.778;9.986;2022-09-09T10:40:31;22.30;98.50
5588;DHT22;2816;49.778;9.986;2022-09-09T10:43:09;22.40;97.70
5588;DHT22;2816;49.778;9.986;2022-09-09T10:45:47;22.40;97.20
5588;DHT22;2816;49.778;9.986;2022-09-09T10:48:29;21.00;99.10
5588;DHT22;2816;49.778;9.986;2022-09-09T10:51:07;19.90;99.90
5588;DHT22;2816;49.778;9.986;2022-09-09T10:53:44;19.50;99.90
5588;DHT22;2816;49.778;9.986;2022-09-09T10:56:16;19.20;99.90
5588;DHT22;2816;49.778;9.986;2022-09-09T10:58:47;19.10;99.90
5588;DHT22;2816;49.778;9.986;2022-09-09T11:01:19;18.70;99.90
5588;DHT22;2816;49.778;9.986;2022-09-09T11:03:53;18.40;99.90
5588;DHT22;2816;49.778;9.986;2022-09-09T11:06:28;18.00;99.90
5588;DHT22;2816;49.778;9.986;2022-09-09T11:08:58;17.90;99.90
5588;DHT22;2816;49.778;9.986;2022-09-09T11:11:32;18.20;99.90
5588;DHT22;2816;49.778;9.986;2022-09-09T11:14:03;18.10;99.90
5588;DHT22;2816;49.778;9.986;2022-09-09T11:16:39;18.10;99.90
5588;DHT22;2816;49.778;9.986;2022-09-09T11:19:13;18.00;99.90
5588;DHT22;2816;49.778;9.986;2022-09-09T11:21:45;18.00;99.90
5588;DHT22;2816;49.778;9.986;2022-09-09T11:24:18;18.40;99.90
5588;DHT22;2816;49.778;9.986;2022-09-09T11:26:51;18.60;99.90
5588;DHT22;2816;49.778;9.986;2022-09-09T11:29:42;18.80;99.90
5588;DHT22;2816;49.778;9.986;2022-09-09T11:32:27;19.20;99.90
5588;DHT22;2816;49.778;9.986;2022-09-09T11:35:07;19.60;99.90
5588;DHT22;2816;49.778;9.986;2022-09-09T11:40:26;20.00;99.90
5588;DHT22;2816;49.778;9.986;2022-09-09T11:43:03;20.20;99.90
5588;DHT22;2816;49.778;9.986;2022-09-09T11:45:32;20.40;99.90
5588;DHT22;2816;49.778;9.986;2022-09-09T11:48:02;20.70;99.90
5588;DHT22;2816;49.778;9.986;2022-09-09T11:50:34;20.90;99.90
5588;DHT22;2816;49.778;9.986;2022-09-09T11:53:22;21.10;99.90
5588;DHT22;2816;49.778;9.986;2022-09-09T11:56:08;21.10;99.90
5588;DHT22;2816;49.778;9.986;2022-09-09T11:58:41;21.30;99.90
5588;DHT22;2816;49.778;9.986;2022-09-09T12:01:27;21.60;99.90
5588;DHT22;2816;49.778;9.986;2022-09-09T12:06:51;22.10;98.20
5588;DHT22;2816;49.778;9.986;2022-09-09T12:09:23;22.20;98.30
5588;DHT22;2816;49.778;9.986;2022-09-09T12:11:52;22.20;97.60
5588;DHT22;2816;49.778;9.986;2022-09-09T12:14:23;22.20;98.60
5588;DHT22;2816;49.778;9.986;2022-09-09T12:17:09;22.40;98.60
5588;DHT22;2816;49.778;9.986;2022-09-09T12:19:36;22.70;98.20
5588;DHT22;2816;49.778;9.986;2022-09-09T12:22:07;22.90;97.80
5588;DHT22;2816;49.778;9.986;2022-09-09T12:24:43;23.00;98.10
5588;DHT22;2816;49.778;9.986;2022-09-09T12:27:18;22.90;98.00
5588;DHT22;2816;49.778;9.986;2022-09-09T12:29:52;22.80;98.40
5588;DHT22;2816;49.778;9.986;2022-09-09T12:32:23;23.00;97.60
5588;DHT22;2816;49.778;9.986;2022-09-09T12:34:54;22.90;97.10
5588;DHT22;2816;49.778;9.986;2022-09-09T12:37:27;22.50;97.70
5588;DHT22;2816;49.778;9.986;2022-09-09T12:39:58;22.50;98.20
5588;DHT22;2816;49.778;9.986;2022-09-09T12:42:26;22.30;98.30
5588;DHT22;2816;49.778;9.986;2022-09-09T12:44:55;22.30;98.50
5588;DHT22;2816;49.778;9.986;2022-09-09T12:47:29;22.20;99.50
5588;DHT22;2816;49.778;9.986;2022-09-09T12:49:57;22.20;99.90
5588;DHT22;2816;49.778;9.986;2022-09-09T12:52:27;22.10;99.90
5588;DHT22;2816;49.778;9.986;2022-09-09T12:54:59;22.40;99.90
5588;DHT22;2816;49.778;9.986;2022-09-09T12:57:31;22.60;99.90
5588;DHT22;2816;49.778;9.986;2022-09-09T13:00:11;22.80;99.90
5588;DHT22;2816;49.778;9.986;2022-09-09T13:02:47;22.80;99.90
5588;DHT22;2816;49.778;9.986;2022-09-09T13:05:17;23.00;97.80
5588;DHT22;2816;49.778;9.986;2022-09-09T13:07:45;23.00;97.50
5588;DHT22;2816;49.778;9.986;2022-09-09T13:10:15;23.20;97.70
5588;DHT22;2816;49.778;9.986;2022-09-09T13:12:46;23.50;97.70
5588;DHT22;2816;49.778;9.986;2022-09-09T13:15:19;23.40;97.40
5588;DHT22;2816;49.778;9.986;2022-09-09T13:17:53;23.30;98.00
5588;DHT22;2816;49.778;9.986;2022-09-09T13:20:21;22.90;97.70
5588;DHT22;2816;49.778;9.986;2022-09-09T13:22:51;22.80;98.00
5588;DHT22;2816;49.778;9.986;2022-09-09T13:25:23;22.60;97.80
5588;DHT22;2816;49.778;9.986;2022-09-09T13:28:04;22.50;97.80
5588;DHT22;2816;49.778;9.986;2022-09-09T13:30:32;22.30;98.00
5588;DHT22;2816;49.778;9.986;2022-09-09T13:33:19;22.30;97.80
5588;DHT22;2816;49.778;9.986;2022-09-09T13:35:50;22.40;97.00
5588;DHT22;2816;49.778;9.986;2022-09-09T13:38:17;22.20;97.50
5588;DHT22;2816;49.778;9.986;2022-09-09T13:40:59;22.20;97.40
5588;DHT22;2816;49.778;9.986;2022-09-09T13:43:28;22.20;97.20
5588;DHT22;2816;49.778;9.986;2022-09-09T13:45:57;22.20;96.00
5588;DHT22;2816;49.778;9.986;2022-09-09T13:48:25;22.30;96.60
5588;DHT22;2816;49.778;9.986;2022-09-09T13:50:57;22.30;95.10
5588;DHT22;2816;49.778;9.986;2022-09-09T13:53:24;22.20;96.00
5588;DHT22;2816;49.778;9.986;2022-09-09T13:55:51;22.10;96.60
5588;DHT22;2816;49.778;9.986;2022-09-09T13:58:20;22.00;94.40
5588;DHT22;2816;49.778;9.986;2022-09-09T14:00:48;22.00;96.50
5588;DHT22;2816;49.778;9.986;2022-09-09T14:03:15;21.90;95.30
5588;DHT22;2816;49.778;9.986;2022-09-09T14:05:43;21.80;96.10
5588;DHT22;2816;49.778;9.986;2022-09-09T14:08:18;21.70;94.40
5588;DHT22;2816;49.778;9.986;2022-09-09T14:10:46;21.60;95.40
5588;DHT22;2816;49.778;9.986;2022-09-09T14:13:13;21.60;94.90
5588;DHT22;2816;49.778;9.986;2022-09-09T14:15:42;21.70;96.40
5588;DHT22;2816;49.778;9.986;2022-09-09T14:18:11;21.50;98.30
5588;DHT22;2816;49.778;9.986;2022-09-09T14:20:40;21.30;99.80
5588;DHT22;2816;49.778;9.986;2022-09-09T14:23:10;21.20;99.50
5588;DHT22;2816;49.778;9.986;2022-09-09T14:25:40;21.00;99.90
5588;DHT22;2816;49.778;9.986;2022-09-09T14:28:09;20.90;99.90
5588;DHT22;2816;49.778;9.986;2022-09-09T14:30:37;20.80;99.90
5588;DHT22;2816;49.778;9.986;2022-09-09T14:33:06;20.90;99.90
5588;DHT22;2816;49.778;9.986;2022-09-09T14:35:33;21.00;99.90
5588;DHT22;2816;49.778;9.986;2022-09-09T14:38:02;21.20;99.90
5588;DHT22;2816;49.778;9.986;2022-09-09T14:40:30;21.40;99.90
5588;DHT22;2816;49.778;9.986;2022-09-09T14:42:57;21.50;99.60
5588;DHT22;2816;49.778;9.986;2022-09-09T14:45:24;21.50;99.90
5588;DHT22;2816;49.778;9.986;2022-09-09T14:47:52;21.40;99.90
5588;DHT22;2816;49.778;9.986;2022-09-09T14:50:21;21.30;98.10
5588;DHT22;2816;49.778;9.986;2022-09-09T14:52:49;21.30;99.70
5588;DHT22;2816;49.778;9.986;2022-09-09T14:55:16;21.20;99.40
5588;DHT22;2816;49.778;9.986;2022-09-09T14:57:43;21.10;98.00
5588;DHT22;2816;49.778;9.986;2022-09-09T15:00:11;20.40;99.90
5588;DHT22;2816;49.778;9.986;2022-09-09T15:02:38;19.90;99.90
5588;DHT22;2816;49.778;9.986;2022-09-09T15:05:06;19.80;99.90
5588;DHT22;2816;49.778;9.986;2022-09-09T15:07:35;19.60;99.90
5588;DHT22;2816;49.778;9.986;2022-09-09T15:10:03;19.50;99.90
5588;DHT22;2816;49.778;9.986;2022-09-09T15:12:30;19.20;99.90
5588;DHT22;2816;49.778;9.986;2022-09-09T15:14:58;19.20;99.90
5588;DHT22;2816;49.778;9.986;2022-09-09T15:17:25;19.20;99.90
5588;DHT22;2816;49.778;9.986;2022-09-09T15:19:52;19.20;99.90
5588;DHT22;2816;49.778;9.986;2022-09-09T15:22:20;19.00;99.90
5588;DHT22;2816;49.778;9.986;2022-09-09T15:24:48;18.90;99.90
5588;DHT22;2816;49.778;9.986;2022-09-09T15:27:15;19.00;99.90
5588;DHT22;2816;49.778;9.986;2022-09-09T15:29:43;19.10;99.90
5588;DHT22;2816;49.778;9.986;2022-09-09T15:32:10;19.10;99.90
5588;DHT22;2816;49.778;9.986;2022-09-09T15:34:37;19.00;99.90
5588;DHT22;2816;49.778;9.986;2022-09-09T15:37:05;19.20;99.90
5588;DHT22;2816;49.778;9.986;2022-09-09T15:39:32;19.40;99.90
5588;DHT22;2816;49.778;9.986;2022-09-09T15:42:01;19.40;99.90
5588;DHT22;2816;49.778;9.986;2022-09-09T15:44:28;19.50;99.90
5588;DHT22;2816;49.778;9.986;2022-09-09T15:46:55;19.50;99.90
5588;DHT22;2816;49.778;9.986;2022-09-09T15:49:23;19.60;99.90
5588;DHT22;2816;49.778;9.986;2022-09-09T15:51:52;19.80;99.90
5588;DHT22;2816;49.778;9.986;2022-09-09T15:54:21;19.80;99.90
5588;DHT22;2816;49.778;9.986;2022-09-09T15:56:51;19.90;99.90
5588;DHT22;2816;49.778;9.986;2022-09-09T15:59:21;20.00;99.90
5588;DHT22;2816;49.778;9.986;2022-09-09T16:01:48;20.00;99.90
5588;DHT22;2816;49.778;9.986;2022-09-09T16:04:17;20.00;99.90
5588;DHT22;2816;49.778;9.986;2022-09-09T16:06:49;20.10;99.90
5588;DHT22;2816;49.778;9.986;2022-09-09T16:09:17;20.20;99.90
5588;DHT22;2816;49.778;9.986;2022-09-09T16:11:44;20.30;99.90
5588;DHT22;2816;49.778;9.986;2022-09-09T16:14:12;20.50;99.90
5588;DHT22;2816;49.778;9.986;2022-09-09T16:16:42;20.50;99.90
5588;DHT22;2816;49.778;9.986;2022-09-09T16:19:11;20.50;99.10
5588;DHT22;2816;49.778;9.986;2022-09-09T16:21:40;20.50;99.20
5588;DHT22;2816;49.778;9.986;2022-09-09T16:24:09;20.50;99.50
5588;DHT22;2816;49.778;9.986;2022-09-09T16:26:39;20.40;99.30
5588;DHT22;2816;49.778;9.986;2022-09-09T16:29:06;20.40;98.90
5588;DHT22;2816;49.778;9.986;2022-09-09T16:31:34;20.40;99.90
5588;DHT22;2816;49.778;9.986;2022-09-09T16:34:02;20.40;98.30